createdAt,value
2019-05-15T00:01:13.560Z,9.30
2019-05-15T00:03:44.105Z,9.20
2019-05-15T00:06:14.645Z,9.20
2019-05-15T00:08:45.146Z,9.20
2019-05-15T00:11:15.615Z,9.20
2019-05-15T00:14:05.309Z,9.30
2019-05-15T00:16:38.428Z,9.20
2019-05-15T00:19:09.247Z,9.20
2019-05-15T00:21:40.158Z,9.20
2019-05-15T00:24:13.059Z,9.20
2019-05-15T00:26:42.887Z,9.20
2019-05-15T00:29:16.235Z,9.10
2019-05-15T00:31:48.335Z,9.10
2019-05-15T00:34:18.280Z,9.10
2019-05-15T00:36:49.049Z,9.00
2019-05-15T00:39:19.749Z,9.00
2019-05-15T00:41:54.633Z,9.00
2019-05-15T00:44:22.595Z,9.00
2019-05-15T00:46:53.140Z,9.00
2019-05-15T00:49:25.471Z,9.00
2019-05-15T00:51:55.996Z,9.00
2019-05-15T00:54:28.221Z,9.00
2019-05-15T00:56:58.934Z,9.00
2019-05-15T00:59:30.218Z,9.00
2019-05-15T01:02:00.764Z,9.00
2019-05-15T01:04:31.297Z,9.00
2019-05-15T01:07:01.710Z,9.00
2019-05-15T01:09:32.299Z,8.90
2019-05-15T01:12:02.906Z,8.90
2019-05-15T01:14:33.667Z,8.80
2019-05-15T01:17:04.102Z,8.90
2019-05-15T01:19:34.673Z,8.80
2019-05-15T01:22:05.204Z,8.60
2019-05-15T01:24:38.935Z,8.60
2019-05-15T01:27:10.952Z,8.70
2019-05-15T01:29:45.037Z,8.70
2019-05-15T01:32:13.757Z,8.70
2019-05-15T01:34:44.468Z,8.70
2019-05-15T01:37:15.054Z,8.70
2019-05-15T01:39:45.730Z,8.70
2019-05-15T01:42:18.457Z,8.70
2019-05-15T01:44:48.746Z,8.60
2019-05-15T01:47:19.291Z,8.70
2019-05-15T01:49:49.843Z,8.70
2019-05-15T01:52:20.370Z,8.70
2019-05-15T01:54:50.978Z,8.60
2019-05-15T01:57:23.098Z,8.60
2019-05-15T01:59:57.412Z,8.60
2019-05-15T02:02:27.905Z,8.50
2019-05-15T02:04:59.160Z,8.40
2019-05-15T02:07:29.770Z,8.30
2019-05-15T02:10:00.473Z,8.30
2019-05-15T02:12:31.043Z,8.30
2019-05-15T02:15:01.655Z,8.30
2019-05-15T02:17:32.220Z,8.20
2019-05-15T02:20:03.122Z,8.20
2019-05-15T02:22:33.837Z,8.20
2019-05-15T02:25:04.779Z,8.20
2019-05-15T02:27:35.347Z,8.20
2019-05-15T02:30:18.060Z,8.20
2019-05-15T02:32:40.172Z,8.20
2019-05-15T02:35:10.893Z,8.10
2019-05-15T02:37:41.652Z,8.00
2019-05-15T02:40:12.584Z,8.00
2019-05-15T02:42:43.167Z,8.00
2019-05-15T02:45:14.501Z,8.00
2019-05-15T02:47:45.066Z,7.90
2019-05-15T02:50:15.968Z,7.90
2019-05-15T02:52:49.448Z,8.00
2019-05-15T02:55:19.735Z,7.90
2019-05-15T02:57:50.582Z,8.00
2019-05-15T03:00:36.091Z,7.90
2019-05-15T03:02:53.458Z,7.90
2019-05-15T03:05:24.293Z,7.90
2019-05-15T03:07:59.404Z,7.90
2019-05-15T03:10:32.760Z,8.00
2019-05-15T03:13:03.246Z,7.90
2019-05-15T03:15:35.003Z,7.90
2019-05-15T03:18:05.523Z,8.00
2019-05-15T03:20:38.636Z,7.90
2019-05-15T03:23:09.590Z,7.90
2019-05-15T03:25:40.911Z,7.80
2019-05-15T03:28:11.568Z,7.80
2019-05-15T03:31:13.300Z,7.70
2019-05-15T03:33:20.747Z,7.70
2019-05-15T03:35:53.679Z,7.70
2019-05-15T03:38:21.196Z,7.60
2019-05-15T03:40:51.777Z,7.70
2019-05-15T03:43:22.334Z,7.70
2019-05-15T03:45:52.844Z,7.60
2019-05-15T03:48:23.475Z,7.60
2019-05-15T03:50:53.971Z,7.60
2019-05-15T03:53:24.802Z,7.50
2019-05-15T03:55:58.644Z,7.50
2019-05-15T03:58:28.753Z,7.50
2019-05-15T04:01:00.413Z,7.60
2019-05-15T04:03:31.213Z,7.70
2019-05-15T04:06:01.862Z,7.90
2019-05-15T04:08:32.512Z,7.80
2019-05-15T04:11:03.123Z,7.70
2019-05-15T04:13:34.061Z,7.80
2019-05-15T04:16:04.641Z,7.90
2019-05-15T04:18:35.236Z,7.80
2019-05-15T04:21:08.874Z,7.80
2019-05-15T04:23:39.080Z,7.90
2019-05-15T04:26:11.719Z,8.00
2019-05-15T04:28:42.601Z,7.90
2019-05-15T04:31:13.154Z,7.90
2019-05-15T04:33:43.741Z,8.00
2019-05-15T04:36:18.922Z,7.90
2019-05-15T04:38:49.694Z,8.00
2019-05-15T04:41:22.359Z,8.10
2019-05-15T04:43:52.908Z,8.20
2019-05-15T04:46:23.591Z,8.20
2019-05-15T04:48:54.208Z,8.30
2019-05-15T04:51:24.789Z,8.30
2019-05-15T04:53:58.467Z,8.10
2019-05-15T04:56:29.365Z,8.20
2019-05-15T04:59:00.329Z,8.20
2019-05-15T05:01:30.834Z,8.20
2019-05-15T05:04:02.962Z,8.30
2019-05-15T05:06:34.015Z,8.40
2019-05-15T05:09:08.922Z,8.40
2019-05-15T05:11:38.477Z,8.60
2019-05-15T05:14:08.999Z,8.70
2019-05-15T05:16:39.690Z,8.70
2019-05-15T05:19:10.286Z,8.70
2019-05-15T05:21:41.147Z,8.70
2019-05-15T05:24:11.809Z,8.80
2019-05-15T05:26:42.272Z,8.80
2019-05-15T05:29:12.812Z,8.80
2019-05-15T05:31:43.344Z,8.90
2019-05-15T05:34:13.871Z,8.90
2019-05-15T05:36:44.324Z,9.00
2019-05-15T05:39:17.678Z,9.00
2019-05-15T05:41:48.743Z,9.00
2019-05-15T05:44:19.614Z,9.00
2019-05-15T05:46:50.227Z,9.10
2019-05-15T05:49:20.798Z,9.10
2019-05-15T05:51:51.347Z,9.10
2019-05-15T05:54:22.119Z,9.20
2019-05-15T05:56:52.874Z,9.20
2019-05-15T05:59:23.403Z,9.20
2019-05-15T06:01:54.376Z,9.20
2019-05-15T06:04:24.919Z,9.30
2019-05-15T06:07:07.163Z,9.30
2019-05-15T06:09:27.877Z,9.30
2019-05-15T06:11:58.439Z,9.30
2019-05-15T06:14:29.093Z,9.40
2019-05-15T06:16:59.586Z,9.30
2019-05-15T06:19:31.440Z,9.30
2019-05-15T06:22:02.119Z,9.40
2019-05-15T06:24:32.703Z,9.40
2019-05-15T06:27:03.202Z,9.50
2019-05-15T06:29:34.248Z,9.50
2019-05-15T06:32:04.775Z,9.50
2019-05-15T06:34:35.312Z,9.60
2019-05-15T06:37:08.191Z,9.60
2019-05-15T06:39:39.028Z,9.60
2019-05-15T06:42:09.712Z,9.60
2019-05-15T06:44:40.313Z,9.70
2019-05-15T06:47:10.808Z,9.60
2019-05-15T06:49:42.527Z,9.60
2019-05-15T06:52:12.993Z,9.50
2019-05-15T06:54:43.649Z,9.60
2019-05-15T06:57:14.306Z,9.70
2019-05-15T06:59:48.275Z,9.60
2019-05-15T07:02:18.862Z,9.80
2019-05-15T07:04:49.582Z,9.70
2019-05-15T07:07:20.113Z,9.70
2019-05-15T07:09:50.719Z,9.70
2019-05-15T07:12:21.261Z,9.90
2019-05-15T07:14:51.820Z,9.80
2019-05-15T07:17:22.388Z,9.80
2019-05-15T07:19:52.857Z,9.80
2019-05-15T07:22:23.578Z,9.90
2019-05-15T07:24:54.329Z,9.90
2019-05-15T07:27:24.856Z,9.80
2019-05-15T07:30:14.716Z,9.90
2019-05-15T07:32:58.411Z,9.90
2019-05-15T07:35:28.872Z,10.00
2019-05-15T07:38:00.150Z,10.10
2019-05-15T07:40:30.693Z,10.10
2019-05-15T07:43:01.229Z,10.20
2019-05-15T07:45:31.760Z,10.40
2019-05-15T07:48:02.247Z,10.30
2019-05-15T07:50:32.763Z,10.40
2019-05-15T07:53:03.329Z,10.40
2019-05-15T07:55:33.779Z,10.30
2019-05-15T07:58:04.384Z,10.30
2019-05-15T08:00:35.071Z,10.40
2019-05-15T08:03:05.583Z,10.40
2019-05-15T08:05:39.461Z,10.50
2019-05-15T08:08:08.886Z,10.40
2019-05-15T08:10:39.825Z,10.50
2019-05-15T08:13:10.454Z,10.40
2019-05-15T08:15:41.140Z,10.40
2019-05-15T08:20:43.879Z,10.50
2019-05-15T08:23:19.685Z,10.50
2019-05-15T08:25:50.462Z,10.70
2019-05-15T08:26:05.638Z,10.40
2019-05-15T08:28:20.958Z,10.70
2019-05-15T08:30:51.578Z,10.60
2019-05-15T08:33:22.253Z,10.50
2019-05-15T08:35:53.619Z,10.50
2019-05-15T08:38:24.127Z,10.50
2019-05-15T08:40:54.660Z,10.60
2019-05-15T08:43:28.291Z,10.70
2019-05-15T08:45:58.679Z,10.70
2019-05-15T08:48:32.533Z,10.70
2019-05-15T08:51:01.601Z,10.80
2019-05-15T08:53:32.179Z,10.80
2019-05-15T08:56:02.697Z,10.80
2019-05-15T08:58:33.180Z,10.80
2019-05-15T09:01:03.713Z,10.80
2019-05-15T09:03:34.284Z,10.90
2019-05-15T09:06:05.404Z,10.90
2019-05-15T09:08:39.152Z,11.00
2019-05-15T09:11:09.661Z,10.90
2019-05-15T09:13:43.316Z,11.00
2019-05-15T09:16:12.968Z,11.10
2019-05-15T09:18:43.501Z,11.10
2019-05-15T09:21:14.080Z,11.10
2019-05-15T09:23:44.621Z,11.20
2019-05-15T09:26:15.166Z,11.20
2019-05-15T09:28:45.750Z,11.20
2019-05-15T09:31:18.602Z,11.20
2019-05-15T09:33:49.238Z,11.10
2019-05-15T09:36:21.702Z,11.20
2019-05-15T09:38:52.181Z,11.20
2019-05-15T09:41:23.070Z,11.20
2019-05-15T09:43:53.553Z,11.30
2019-05-15T09:46:24.087Z,11.30
2019-05-15T09:48:54.597Z,11.30
2019-05-15T09:51:25.319Z,11.20
2019-05-15T09:53:55.965Z,11.20
2019-05-15T09:56:29.063Z,11.20
2019-05-15T09:58:58.636Z,11.30
2019-05-15T10:01:29.240Z,11.40
2019-05-15T10:03:59.827Z,11.50
2019-05-15T10:06:30.515Z,11.60
2019-05-15T10:09:01.035Z,11.60
2019-05-15T10:11:32.926Z,11.60
2019-05-15T10:14:03.548Z,11.70
2019-05-15T10:16:34.021Z,11.80
2019-05-15T10:19:04.743Z,11.80
2019-05-15T10:21:35.273Z,11.90
2019-05-15T10:24:05.709Z,12.00
2019-05-15T10:26:36.242Z,12.00
2019-05-15T10:29:09.135Z,12.00
2019-05-15T10:31:39.176Z,12.00
2019-05-15T10:34:09.699Z,11.90
2019-05-15T10:36:40.858Z,12.00
2019-05-15T10:39:11.581Z,11.90
2019-05-15T10:42:02.852Z,11.90
2019-05-15T10:44:34.268Z,12.00
2019-05-15T10:47:04.954Z,11.90
2019-05-15T10:49:38.907Z,12.00
2019-05-15T10:52:11.269Z,11.90
2019-05-15T10:54:41.363Z,11.90
2019-05-15T10:57:11.972Z,11.90
2019-05-15T10:59:42.488Z,12.00
2019-05-15T11:02:13.009Z,12.00
2019-05-15T11:04:44.778Z,12.10
2019-05-15T11:07:15.399Z,12.10
2019-05-15T11:09:48.741Z,12.10
2019-05-15T11:12:18.918Z,12.10
2019-05-15T11:14:49.900Z,12.00
2019-05-15T11:17:20.892Z,11.90
2019-05-15T11:19:51.484Z,11.90
2019-05-15T11:22:22.162Z,11.90
2019-05-15T11:24:53.162Z,12.00
2019-05-15T11:27:24.049Z,12.00
2019-05-15T11:29:55.079Z,12.10
2019-05-15T11:32:29.367Z,12.10
2019-05-15T11:34:59.222Z,12.20
2019-05-15T11:37:56.720Z,12.20
2019-05-15T11:40:22.760Z,12.20
2019-05-15T11:42:53.413Z,12.10
2019-05-15T11:45:24.248Z,12.10
2019-05-15T11:47:54.899Z,12.20
2019-05-15T11:50:29.098Z,12.30
2019-05-15T11:52:58.604Z,12.30
2019-05-15T11:55:29.259Z,12.30
2019-05-15T11:58:19.367Z,12.30
2019-05-15T12:01:08.962Z,12.30
2019-05-15T12:03:40.067Z,12.20
2019-05-15T12:06:18.489Z,12.20
2019-05-15T12:08:42.893Z,12.20
2019-05-15T12:11:28.775Z,12.30
2019-05-15T12:13:45.659Z,12.30
2019-05-15T12:16:16.203Z,12.30
2019-05-15T12:18:48.321Z,12.30
2019-05-15T12:21:19.907Z,12.30
2019-05-15T12:23:51.003Z,12.40
2019-05-15T12:26:21.635Z,12.40
2019-05-15T12:28:52.117Z,12.40
2019-05-15T12:31:24.769Z,12.50
2019-05-15T12:33:54.971Z,12.50
2019-05-15T12:36:50.207Z,12.50
2019-05-15T12:38:57.662Z,12.50
2019-05-15T13:02:08.059Z,12.70
2019-05-15T13:04:38.984Z,12.70
2019-05-15T13:07:13.970Z,12.70
2019-05-15T13:09:42.232Z,12.70
2019-05-15T13:12:12.787Z,12.70
2019-05-15T13:14:43.339Z,12.70
2019-05-15T13:17:15.479Z,12.70
2019-05-15T13:19:48.298Z,12.70
2019-05-15T13:22:24.521Z,12.70
2019-05-15T13:25:09.677Z,12.70
2019-05-15T13:27:40.369Z,12.70
2019-05-15T13:30:12.853Z,12.80
2019-05-15T13:32:43.394Z,12.80
2019-05-15T13:35:14.508Z,12.80
2019-05-15T13:37:45.075Z,12.80
2019-05-15T13:40:18.458Z,12.80
2019-05-15T13:42:50.181Z,12.80
2019-05-15T13:45:20.982Z,12.80
2019-05-15T13:47:51.529Z,12.80
2019-05-15T13:50:22.071Z,12.70
2019-05-15T13:52:53.251Z,12.70
2019-05-15T13:55:25.531Z,12.70
2019-05-15T13:57:57.992Z,12.70
2019-05-15T14:00:28.933Z,12.70
2019-05-15T14:02:59.711Z,12.70
2019-05-15T14:05:30.250Z,12.70
2019-05-15T14:08:00.730Z,12.80
2019-05-15T14:10:31.321Z,12.80
2019-05-15T14:13:02.287Z,12.80
2019-05-15T14:15:32.868Z,12.80
2019-05-15T14:18:03.400Z,12.90
2019-05-15T14:20:34.015Z,12.90
2019-05-15T14:23:04.484Z,12.90
2019-05-15T14:25:35.361Z,12.90
2019-05-15T14:28:08.550Z,12.90
2019-05-15T14:30:38.122Z,12.90
2019-05-15T14:33:08.732Z,12.90
2019-05-15T14:35:39.641Z,13.00
2019-05-15T14:38:10.641Z,12.90
2019-05-15T14:40:41.138Z,12.90
2019-05-15T14:43:11.700Z,12.90
2019-05-15T14:45:42.486Z,12.90
2019-05-15T14:48:12.979Z,13.00
2019-05-15T14:50:43.466Z,13.00
2019-05-15T14:53:13.999Z,12.90
2019-05-15T14:55:44.573Z,12.90
2019-05-15T14:58:15.659Z,12.90
2019-05-15T15:00:50.106Z,12.90
2019-05-15T15:03:19.969Z,12.90
2019-05-15T15:05:51.018Z,12.90
2019-05-15T15:08:25.171Z,12.90
2019-05-15T15:10:53.914Z,12.90
2019-05-15T15:13:24.465Z,12.90
2019-05-15T15:15:55.019Z,12.90
2019-05-15T15:18:27.952Z,12.80
2019-05-15T15:20:58.143Z,12.80
2019-05-15T15:23:28.771Z,12.90
2019-05-15T15:25:59.357Z,12.90
2019-05-15T15:28:29.920Z,12.90
2019-05-15T15:31:00.525Z,12.90
2019-05-15T15:33:31.094Z,12.90
2019-05-15T15:36:01.594Z,12.90
2019-05-15T15:38:40.543Z,12.80
2019-05-15T15:41:04.284Z,12.80
2019-05-15T15:43:34.833Z,12.80
2019-05-15T15:46:05.419Z,12.80
2019-05-15T15:48:38.976Z,12.80
2019-05-15T15:51:09.363Z,12.80
2019-05-15T15:53:39.819Z,12.80
2019-05-15T15:56:10.876Z,12.80
2019-05-15T15:58:41.375Z,12.80
2019-05-15T16:01:11.889Z,12.80
2019-05-15T16:03:42.415Z,12.80
2019-05-15T16:06:13.258Z,12.80
2019-05-15T16:08:53.053Z,12.80
2019-05-15T16:11:18.630Z,12.70
2019-05-15T16:13:49.749Z,12.70
2019-05-15T16:16:20.438Z,12.70
2019-05-15T16:18:50.898Z,12.70
2019-05-15T16:21:21.769Z,12.70
2019-05-15T16:23:52.321Z,12.70
2019-05-15T16:26:22.988Z,12.60
2019-05-15T16:28:53.472Z,12.60
2019-05-15T16:31:23.975Z,12.60
2019-05-15T16:33:54.439Z,12.50
2019-05-15T16:36:25.011Z,12.50
2019-05-15T16:39:05.216Z,12.50
2019-05-15T16:41:29.024Z,12.50
2019-05-15T16:43:59.749Z,12.50
2019-05-15T16:46:30.242Z,12.50
2019-05-15T16:49:01.080Z,12.50
2019-05-15T16:51:32.435Z,12.50
2019-05-15T16:54:03.078Z,12.50
2019-05-15T16:56:36.397Z,12.40
2019-05-15T16:59:05.793Z,12.40
2019-05-15T17:01:39.150Z,12.40
2019-05-15T17:04:08.787Z,12.40
2019-05-15T17:06:40.016Z,12.40
2019-05-15T17:09:29.635Z,12.40
2019-05-15T17:12:00.156Z,12.40
2019-05-15T17:14:30.715Z,12.40
2019-05-15T17:17:01.305Z,12.30
2019-05-15T17:19:43.083Z,12.40
2019-05-15T17:22:25.152Z,12.30
2019-05-15T17:25:09.260Z,12.30
2019-05-15T17:27:51.083Z,12.30
2019-05-15T17:30:33.020Z,12.30
2019-05-15T17:35:50.898Z,12.30
2019-05-15T17:38:33.474Z,12.30
2019-05-15T17:41:15.263Z,12.30
2019-05-15T17:43:57.978Z,12.20
2019-05-15T17:46:40.558Z,12.20
2019-05-15T17:49:22.683Z,12.20
2019-05-15T17:52:05.210Z,12.20
2019-05-15T17:54:49.128Z,12.20
2019-05-15T17:57:31.100Z,12.10
2019-05-15T18:00:13.051Z,12.10
2019-05-15T18:02:55.034Z,12.10
2019-05-15T18:05:39.113Z,12.00
2019-05-15T18:08:21.366Z,12.00
2019-05-15T18:11:03.738Z,12.00
2019-05-15T18:13:45.597Z,11.90
2019-05-15T18:16:27.967Z,12.00
2019-05-15T18:19:10.426Z,11.90
2019-05-15T18:21:52.120Z,11.90
2019-05-15T18:24:34.176Z,11.90
2019-05-15T18:27:18.379Z,11.80
2019-05-15T18:30:00.301Z,11.80
2019-05-15T18:32:42.281Z,11.80
2019-05-15T18:35:24.992Z,11.80
2019-05-15T18:38:08.541Z,11.70
2019-05-15T18:40:51.084Z,11.70
2019-05-15T18:43:33.033Z,11.70
2019-05-15T18:46:15.334Z,11.60
2019-05-15T18:48:57.999Z,11.60
2019-05-15T18:51:40.259Z,11.50
2019-05-15T18:54:22.799Z,11.50
2019-05-15T18:57:05.214Z,11.50
2019-05-15T18:59:48.703Z,11.40
2019-05-15T19:02:31.153Z,11.40
2019-05-15T19:05:13.722Z,11.50
2019-05-15T19:07:58.023Z,11.50
2019-05-15T19:10:40.141Z,11.40
2019-05-15T19:13:22.266Z,11.40
2019-05-15T19:16:04.907Z,11.30
2019-05-15T19:18:47.920Z,11.30
2019-05-15T19:21:29.795Z,11.30
2019-05-15T19:24:11.879Z,11.20
2019-05-15T19:26:53.589Z,11.20
2019-05-15T19:29:37.704Z,11.10
2019-05-15T19:32:19.751Z,11.10
2019-05-15T19:35:02.239Z,11.10
2019-05-15T19:37:44.088Z,11.10
2019-05-15T19:40:28.354Z,11.10
2019-05-15T19:43:10.949Z,11.00
2019-05-15T19:45:55.036Z,11.00
2019-05-15T19:48:38.497Z,11.00
2019-05-15T19:51:20.426Z,11.00
2019-05-15T19:54:03.285Z,11.00
2019-05-15T19:56:47.834Z,10.90
2019-05-15T19:59:29.637Z,11.00
2019-05-15T20:02:12.377Z,10.90
2019-05-15T20:04:54.187Z,11.00
2019-05-15T20:07:38.660Z,10.90
2019-05-15T20:10:19.603Z,10.90
2019-05-15T20:13:01.598Z,10.80
2019-05-15T20:15:43.277Z,10.80
2019-05-15T20:18:27.714Z,10.80
2019-05-15T20:21:09.965Z,10.80
2019-05-15T20:23:51.993Z,10.80
2019-05-15T20:26:34.183Z,10.80
2019-05-15T20:29:18.195Z,10.80
2019-05-15T20:32:00.239Z,10.70
2019-05-15T20:34:42.466Z,10.70
2019-05-15T20:37:24.813Z,10.70
2019-05-15T20:40:08.857Z,10.70
2019-05-15T20:42:50.603Z,10.70
2019-05-15T20:45:32.552Z,10.70
2019-05-15T20:48:14.995Z,10.70
2019-05-15T20:50:58.914Z,10.70
2019-05-15T20:53:40.386Z,10.70
2019-05-15T20:56:22.436Z,10.70
2019-05-15T20:59:04.483Z,10.60
2019-05-15T21:01:48.231Z,10.60
2019-05-15T21:04:31.082Z,10.60
2019-05-15T21:07:12.778Z,10.50
2019-05-15T21:10:02.242Z,10.60
2019-05-15T21:12:51.811Z,10.60
2019-05-15T21:15:41.379Z,10.60
2019-05-15T21:18:30.978Z,10.60
2019-05-15T21:21:20.553Z,10.50
2019-05-15T21:24:11.757Z,10.50
2019-05-15T21:27:24.195Z,10.50
2019-05-15T21:30:31.539Z,10.50
2019-05-15T21:33:21.043Z,10.50
2019-05-15T21:36:10.694Z,10.40
2019-05-15T21:39:19.711Z,10.40
2019-05-15T21:42:09.290Z,10.40
2019-05-15T21:44:58.823Z,10.40
2019-05-15T21:47:48.463Z,10.40
2019-05-15T21:50:38.787Z,10.30
2019-05-15T21:53:48.590Z,10.30
2019-05-15T21:57:12.777Z,10.20
2019-05-15T22:00:29.025Z,10.20
2019-05-15T22:06:54.085Z,10.20
2019-05-15T22:09:38.169Z,10.10
2019-05-15T22:12:20.669Z,10.10
2019-05-15T22:15:02.732Z,10.10
2019-05-15T22:17:44.769Z,10.10
2019-05-15T22:20:30.165Z,10.00
2019-05-15T22:23:11.149Z,10.00
2019-05-15T22:25:53.901Z,10.00
2019-05-15T22:28:38.460Z,9.90
2019-05-15T22:31:20.020Z,9.90
2019-05-15T22:34:02.647Z,9.90
2019-05-15T22:36:44.536Z,9.90
2019-05-15T22:39:28.071Z,9.90
2019-05-15T22:42:11.021Z,9.90
2019-05-15T22:44:53.060Z,9.80
2019-05-15T22:47:34.837Z,9.90
2019-05-15T22:50:18.771Z,9.80
2019-05-15T22:53:01.150Z,9.70
2019-05-15T22:55:43.291Z,9.60
2019-05-15T22:58:28.043Z,9.70
2019-05-15T23:01:10.341Z,9.70
2019-05-15T23:03:52.586Z,9.70
2019-05-15T23:06:34.549Z,9.60
2019-05-15T23:09:16.743Z,9.60
2019-05-15T23:11:58.981Z,9.70
2019-05-15T23:14:41.042Z,9.60
2019-05-15T23:17:23.483Z,9.60
2019-05-15T23:20:05.691Z,9.50
2019-05-15T23:22:48.256Z,9.50
2019-05-15T23:25:30.137Z,9.60
2019-05-15T23:28:12.449Z,9.50
2019-05-15T23:30:54.883Z,9.40
2019-05-15T23:33:38.643Z,9.40
2019-05-15T23:36:20.130Z,9.50
2019-05-15T23:39:02.270Z,9.50
2019-05-15T23:41:44.415Z,9.40
2019-05-15T23:44:27.673Z,9.40
2019-05-15T23:47:10.369Z,9.40
2019-05-15T23:49:52.961Z,9.40
2019-05-15T23:52:34.699Z,9.40
2019-05-15T23:55:18.783Z,9.50
2019-05-15T23:58:00.456Z,9.50
